Time;durP1;ratioP1;P1;durP2;ratioP2;P2;SDS_P1;SDS_P2;PMS_P1;PMS_P2;Temp;Humidity;BMP_temperature;BMP_pressure;BME280_temperature;BME280_humidity;BME280_pressure;Samples;Min_cycle;Max_cycle;Signal;HPM_P1;HPM_P2
2023/03/13 00:00:47;;;;;;;;;;;10.50;88.90;;;;;;5121374;27;19997;-67
2023/03/13 00:03:13;;;;;;;;;;;10.50;89.20;;;;;;5112088;28;20285;-67
2023/03/13 00:05:38;;;;;;;;;;;10.50;89.40;;;;;;5103703;28;19907;-67
2023/03/13 00:08:04;;;;;;;;;;;10.50;89.70;;;;;;5102849;28;19933;-66
2023/03/13 00:10:29;;;;;;;;;;;10.50;89.80;;;;;;5118106;27;19908;-67
2023/03/13 00:12:54;;;;;;;;;;;10.50;89.90;;;;;;5106971;27;19916;-67
2023/03/13 00:15:20;;;;;;;;;;;10.50;90.10;;;;;;5111094;27;19923;-67
2023/03/13 00:17:46;;;;;;;;;;;10.50;90.10;;;;;;5109114;27;19960;-65
2023/03/13 00:20:11;;;;;;;;;;;10.40;90.10;;;;;;5106958;28;19947;-65
2023/03/13 00:22:36;;;;;;;;;;;10.50;90.20;;;;;;5108583;28;20291;-65
2023/03/13 00:25:02;;;;;;;;;;;10.50;90.20;;;;;;5110217;27;19908;-65
2023/03/13 00:27:31;;;;;;;;;;;10.50;90.20;;;;;;5116596;27;19911;-65
2023/03/13 00:29:56;;;;;;;;;;;10.50;90.10;;;;;;5112295;27;19907;-65
2023/03/13 00:32:22;;;;;;;;;;;10.50;90.10;;;;;;5117140;27;19903;-66
2023/03/13 00:34:47;;;;;;;;;;;10.50;90.10;;;;;;5118012;27;19918;-65
2023/03/13 00:37:13;;;;;;;;;;;10.50;90.20;;;;;;5114017;27;20351;-65
2023/03/13 00:39:38;;;;;;;;;;;10.50;90.40;;;;;;5108102;27;19908;-65
2023/03/13 00:42:04;;;;;;;;;;;10.50;90.40;;;;;;5119321;27;20357;-65
2023/03/13 00:44:29;;;;;;;;;;;10.50;90.40;;;;;;5115519;27;20023;-65
2023/03/13 00:46:55;;;;;;;;;;;10.50;90.50;;;;;;5118136;27;19908;-65
2023/03/13 00:49:20;;;;;;;;;;;10.50;90.50;;;;;;5118797;27;19915;-65
2023/03/13 00:51:46;;;;;;;;;;;10.50;90.60;;;;;;5122091;27;19956;-65
2023/03/13 00:54:11;;;;;;;;;;;10.50;90.50;;;;;;5120144;27;19904;-65
2023/03/13 00:56:37;;;;;;;;;;;10.50;90.60;;;;;;5117989;27;20545;-65
2023/03/13 00:59:02;;;;;;;;;;;10.50;90.70;;;;;;5125628;27;19915;-65
2023/03/13 01:01:32;;;;;;;;;;;10.40;90.70;;;;;;5109594;27;19921;-65
2023/03/13 01:03:59;;;;;;;;;;;10.40;90.80;;;;;;5105691;27;19973;-65
2023/03/13 01:06:26;;;;;;;;;;;10.40;90.90;;;;;;5117848;27;19914;-65
2023/03/13 01:08:52;;;;;;;;;;;10.40;91.00;;;;;;5101827;28;19908;-66
2023/03/13 01:11:22;;;;;;;;;;;10.30;91.10;;;;;;5116943;27;19918;-65
2023/03/13 01:13:48;;;;;;;;;;;10.30;91.20;;;;;;5103208;27;19915;-65
2023/03/13 01:16:15;;;;;;;;;;;10.30;91.40;;;;;;5107998;27;19911;-65
2023/03/13 01:18:42;;;;;;;;;;;10.30;91.50;;;;;;5099277;27;20320;-65
2023/03/13 01:21:08;;;;;;;;;;;10.30;91.50;;;;;;5114693;27;19911;-65
2023/03/13 01:23:34;;;;;;;;;;;10.30;91.80;;;;;;5107326;27;20278;-65
2023/03/13 01:25:59;;;;;;;;;;;10.30;91.80;;;;;;5110683;27;19907;-65
2023/03/13 01:28:25;;;;;;;;;;;10.30;91.90;;;;;;5113495;27;20180;-65
2023/03/13 01:30:51;;;;;;;;;;;10.30;92.10;;;;;;5101510;28;20348;-66
2023/03/13 01:33:16;;;;;;;;;;;10.30;92.20;;;;;;5105227;28;20003;-66
2023/03/13 01:35:42;;;;;;;;;;;10.30;92.10;;;;;;5104639;27;20017;-66
2023/03/13 01:38:08;;;;;;;;;;;10.30;92.20;;;;;;5100183;27;19916;-66
2023/03/13 01:40:46;;;;;;;;;;;10.30;92.30;;;;;;5108293;27;19908;-65
2023/03/13 01:43:22;;;;;;;;;;;10.30;92.30;;;;;;5110225;27;20433;-65
2023/03/13 01:46:00;;;;;;;;;;;10.30;92.40;;;;;;5102964;28;19939;-65
2023/03/13 01:48:30;;;;;;;;;;;10.30;92.70;;;;;;5110685;27;19911;-65
2023/03/13 01:50:57;;;;;;;;;;;10.40;92.70;;;;;;5104780;27;19912;-65
2023/03/13 01:53:23;;;;;;;;;;;10.40;92.70;;;;;;5115083;27;19972;-65
2023/03/13 01:55:49;;;;;;;;;;;10.40;92.80;;;;;;5112362;27;19960;-65
2023/03/13 01:58:15;;;;;;;;;;;10.40;92.90;;;;;;5107427;27;19922;-66
2023/03/13 02:00:42;;;;;;;;;;;10.40;92.90;;;;;;5108458;27;20008;-65
2023/03/13 02:03:11;;;;;;;;;;;10.40;93.00;;;;;;5108043;27;19960;-66
2023/03/13 02:05:37;;;;;;;;;;;10.40;93.10;;;;;;5119187;27;19918;-65
2023/03/13 02:08:07;;;;;;;;;;;10.50;93.10;;;;;;5101726;27;19916;-65
2023/03/13 02:10:35;;;;;;;;;;;10.50;93.10;;;;;;5094781;27;19915;-65
2023/03/13 02:13:01;;;;;;;;;;;10.50;93.20;;;;;;5112582;27;20001;-65
2023/03/13 02:15:27;;;;;;;;;;;10.50;93.30;;;;;;5099488;28;19908;-65
2023/03/13 02:17:53;;;;;;;;;;;10.50;93.40;;;;;;5111455;27;19918;-65
2023/03/13 02:20:21;;;;;;;;;;;10.60;93.50;;;;;;5101230;27;20423;-65
2023/03/13 02:23:02;;;;;;;;;;;10.60;93.50;;;;;;5114580;27;20395;-65
2023/03/13 02:25:27;;;;;;;;;;;10.60;93.70;;;;;;5101469;27;19915;-65
2023/03/13 02:27:57;;;;;;;;;;;10.60;93.90;;;;;;5105845;28;19911;-65
2023/03/13 02:30:23;;;;;;;;;;;10.60;94.00;;;;;;5103161;28;19915;-65
2023/03/13 02:32:49;;;;;;;;;;;10.70;94.00;;;;;;5101775;28;19916;-66
2023/03/13 02:35:15;;;;;;;;;;;10.70;94.00;;;;;;5099890;28;19912;-65
2023/03/13 02:37:42;;;;;;;;;;;10.70;94.00;;;;;;5111505;28;19918;-65
2023/03/13 02:40:09;;;;;;;;;;;10.70;93.90;;;;;;5109048;27;19907;-66
2023/03/13 02:42:36;;;;;;;;;;;10.80;93.90;;;;;;5103025;28;19912;-65
2023/03/13 02:45:02;;;;;;;;;;;10.80;94.10;;;;;;5101067;28;19915;-65
2023/03/13 02:47:27;;;;;;;;;;;10.90;94.00;;;;;;5106061;27;19994;-65
2023/03/13 02:49:53;;;;;;;;;;;10.90;94.00;;;;;;5105306;28;19908;-65
2023/03/13 02:52:23;;;;;;;;;;;10.90;94.00;;;;;;5107015;28;19923;-65
2023/03/13 02:54:50;;;;;;;;;;;10.90;94.10;;;;;;5107399;28;19961;-65
2023/03/13 02:57:16;;;;;;;;;;;11.00;94.20;;;;;;5098670;28;19953;-65
2023/03/13 02:59:41;;;;;;;;;;;11.00;94.60;;;;;;5103202;28;19958;-65
2023/03/13 03:02:06;;;;;;;;;;;11.00;94.30;;;;;;5104346;28;19915;-65
2023/03/13 03:04:32;;;;;;;;;;;11.00;94.50;;;;;;5121718;27;19911;-65
2023/03/13 03:06:57;;;;;;;;;;;11.10;94.50;;;;;;5108451;28;19908;-66
2023/03/13 03:09:23;;;;;;;;;;;11.10;94.40;;;;;;5118798;28;19911;-65
2023/03/13 03:11:48;;;;;;;;;;;11.10;94.30;;;;;;5097034;28;19907;-65
2023/03/13 03:14:14;;;;;;;;;;;11.20;94.30;;;;;;5106558;28;20319;-66
2023/03/13 03:16:40;;;;;;;;;;;11.20;94.30;;;;;;5100550;28;19907;-66
2023/03/13 03:19:06;;;;;;;;;;;11.20;94.30;;;;;;5105708;28;19911;-65
2023/03/13 03:21:32;;;;;;;;;;;11.30;94.50;;;;;;5099047;28;19915;-66
2023/03/13 03:23:58;;;;;;;;;;;11.30;94.40;;;;;;5117055;28;20360;-66
2023/03/13 03:26:23;;;;;;;;;;;11.30;94.40;;;;;;5097040;27;19914;-65
2023/03/13 03:28:49;;;;;;;;;;;11.40;94.30;;;;;;5108137;28;19923;-65
2023/03/13 03:31:15;;;;;;;;;;;11.40;94.30;;;;;;5105127;28;19914;-65
2023/03/13 03:33:41;;;;;;;;;;;11.40;94.30;;;;;;5107494;28;20538;-66
2023/03/13 03:36:08;;;;;;;;;;;11.50;94.20;;;;;;5097612;28;20378;-65
2023/03/13 03:38:34;;;;;;;;;;;11.50;94.20;;;;;;5101458;28;19951;-65
2023/03/13 03:41:00;;;;;;;;;;;11.50;94.30;;;;;;5103037;28;19943;-65
2023/03/13 03:43:25;;;;;;;;;;;11.60;94.30;;;;;;5103140;28;19911;-65
2023/03/13 03:45:51;;;;;;;;;;;11.60;94.40;;;;;;5108317;27;19923;-65
2023/03/13 03:48:16;;;;;;;;;;;11.60;94.40;;;;;;5105011;28;19908;-65
2023/03/13 03:50:42;;;;;;;;;;;11.70;94.40;;;;;;5099573;27;19953;-65
2023/03/13 03:53:08;;;;;;;;;;;11.70;94.40;;;;;;5103477;27;19965;-65
2023/03/13 03:55:33;;;;;;;;;;;11.70;94.40;;;;;;5111410;28;19942;-65
2023/03/13 03:57:59;;;;;;;;;;;11.80;94.40;;;;;;5111810;27;20415;-65
2023/03/13 04:00:26;;;;;;;;;;;11.80;94.50;;;;;;5111188;28;19908;-65
2023/03/13 04:02:52;;;;;;;;;;;11.80;94.40;;;;;;5106695;28;19915;-65
2023/03/13 04:05:17;;;;;;;;;;;11.90;94.50;;;;;;5127749;27;19911;-66
2023/03/13 04:07:43;;;;;;;;;;;11.80;94.60;;;;;;5107961;27;19916;-65
2023/03/13 04:10:09;;;;;;;;;;;11.90;94.60;;;;;;5108839;28;19911;-66
2023/03/13 04:12:34;;;;;;;;;;;11.90;94.70;;;;;;5100252;27;19931;-65
2023/03/13 04:15:00;;;;;;;;;;;11.90;94.80;;;;;;5100967;27;19994;-65
2023/03/13 04:17:25;;;;;;;;;;;11.90;94.80;;;;;;5107955;27;19914;-65
2023/03/13 04:19:51;;;;;;;;;;;11.90;94.70;;;;;;5111837;27;19911;-65
2023/03/13 04:22:16;;;;;;;;;;;12.00;94.80;;;;;;5111157;27;19908;-65
2023/03/13 04:24:42;;;;;;;;;;;12.00;94.80;;;;;;5113891;27;19907;-65
2023/03/13 04:27:07;;;;;;;;;;;12.00;94.80;;;;;;5123225;27;20566;-65
2023/03/13 04:29:33;;;;;;;;;;;12.00;94.70;;;;;;5111641;27;20373;-65
2023/03/13 04:31:59;;;;;;;;;;;12.10;94.70;;;;;;5112041;27;19914;-65
2023/03/13 04:34:25;;;;;;;;;;;12.10;95.00;;;;;;5114111;27;19911;-65
2023/03/13 04:36:50;;;;;;;;;;;12.10;94.70;;;;;;5119602;27;19908;-65
2023/03/13 04:39:15;;;;;;;;;;;12.10;94.80;;;;;;5109597;27;19916;-65
2023/03/13 04:41:41;;;;;;;;;;;12.10;94.80;;;;;;5109350;28;20278;-65
2023/03/13 04:44:06;;;;;;;;;;;12.20;94.80;;;;;;5113286;27;20435;-65
2023/03/13 04:46:32;;;;;;;;;;;12.20;94.80;;;;;;5100742;28;20637;-65
2023/03/13 04:48:58;;;;;;;;;;;12.20;95.20;;;;;;5102922;28;19915;-65
2023/03/13 04:51:23;;;;;;;;;;;12.20;95.00;;;;;;5108185;27;20434;-65
2023/03/13 04:53:49;;;;;;;;;;;12.30;95.20;;;;;;5112174;27;20442;-65
2023/03/13 04:56:24;;;;;;;;;;;12.30;95.20;;;;;;5116423;27;20027;-64
2023/03/13 04:58:50;;;;;;;;;;;12.30;95.10;;;;;;5100743;28;19912;-65
2023/03/13 05:01:15;;;;;;;;;;;12.40;95.10;;;;;;5105309;28;19922;-65
2023/03/13 05:03:41;;;;;;;;;;;12.40;95.00;;;;;;5099366;28;19908;-65
2023/03/13 05:06:06;;;;;;;;;;;12.40;94.90;;;;;;5100299;28;20378;-66
2023/03/13 05:08:32;;;;;;;;;;;12.40;94.80;;;;;;5101715;27;19908;-66
2023/03/13 05:10:57;;;;;;;;;;;12.50;94.80;;;;;;5115039;27;19907;-66
2023/03/13 05:13:23;;;;;;;;;;;12.50;94.80;;;;;;5101843;28;19919;-66
2023/03/13 05:15:48;;;;;;;;;;;12.50;94.80;;;;;;5104734;28;19964;-65
2023/03/13 05:18:14;;;;;;;;;;;12.50;94.70;;;;;;5105923;28;19919;-66
2023/03/13 05:20:39;;;;;;;;;;;12.60;94.70;;;;;;5105902;28;20006;-66
2023/03/13 05:23:05;;;;;;;;;;;12.60;94.70;;;;;;5102773;28;20370;-65
2023/03/13 05:25:30;;;;;;;;;;;12.60;94.60;;;;;;5101769;28;19925;-66
2023/03/13 05:27:55;;;;;;;;;;;12.60;94.60;;;;;;5103168;28;19911;-65
2023/03/13 05:30:21;;;;;;;;;;;12.60;94.60;;;;;;5115366;27;19914;-66
2023/03/13 05:32:46;;;;;;;;;;;12.60;94.60;;;;;;5105055;28;19945;-67
2023/03/13 05:35:12;;;;;;;;;;;12.70;94.70;;;;;;5109106;27;19967;-65
2023/03/13 05:37:37;;;;;;;;;;;12.70;94.70;;;;;;5107227;27;19915;-65
2023/03/13 05:40:03;;;;;;;;;;;12.70;94.80;;;;;;5102695;27;20044;-65
2023/03/13 05:42:29;;;;;;;;;;;12.70;94.70;;;;;;5098633;27;20002;-66
2023/03/13 05:44:54;;;;;;;;;;;12.70;94.80;;;;;;5101416;27;19912;-66
2023/03/13 05:47:20;;;;;;;;;;;12.70;94.70;;;;;;5101702;27;20871;-66
2023/03/13 05:49:46;;;;;;;;;;;12.80;94.70;;;;;;5099499;28;19916;-66
2023/03/13 05:52:11;;;;;;;;;;;12.80;94.60;;;;;;5100496;27;20374;-65
2023/03/13 05:54:37;;;;;;;;;;;12.80;94.60;;;;;;5099903;27;19908;-66
2023/03/13 05:57:02;;;;;;;;;;;12.80;94.60;;;;;;5102555;27;19937;-66
2023/03/13 05:59:28;;;;;;;;;;;12.80;94.60;;;;;;5105978;27;19920;-67
2023/03/13 06:01:53;;;;;;;;;;;12.80;94.60;;;;;;5100751;28;19912;-67
2023/03/13 06:04:19;;;;;;;;;;;12.90;94.60;;;;;;5106703;28;19914;-67
2023/03/13 06:06:45;;;;;;;;;;;12.90;94.50;;;;;;5097203;28;19947;-67
2023/03/13 06:09:10;;;;;;;;;;;12.90;94.50;;;;;;5102177;28;19938;-66
2023/03/13 06:11:36;;;;;;;;;;;12.90;94.40;;;;;;5095563;28;19955;-66
2023/03/13 06:14:01;;;;;;;;;;;12.90;94.40;;;;;;5101368;28;19912;-67
2023/03/13 06:16:27;;;;;;;;;;;13.00;94.30;;;;;;5100673;28;20401;-66
2023/03/13 06:18:52;;;;;;;;;;;13.00;94.30;;;;;;5097530;28;19995;-67
2023/03/13 06:21:18;;;;;;;;;;;13.00;94.30;;;;;;5097096;28;19989;-68
2023/03/13 06:23:44;;;;;;;;;;;13.00;94.30;;;;;;5103600;27;19908;-68
2023/03/13 06:26:09;;;;;;;;;;;13.00;94.30;;;;;;5106575;27;19916;-68
2023/03/13 06:28:35;;;;;;;;;;;13.00;94.20;;;;;;5095960;27;19938;-68
2023/03/13 06:31:04;;;;;;;;;;;13.00;94.10;;;;;;5103301;27;19912;-68
2023/03/13 06:33:29;;;;;;;;;;;13.00;94.10;;;;;;5103686;27;19915;-68
2023/03/13 06:35:55;;;;;;;;;;;13.10;94.10;;;;;;5098161;27;20313;-67
2023/03/13 06:38:21;;;;;;;;;;;13.10;94.10;;;;;;5097366;28;19919;-68
2023/03/13 06:40:47;;;;;;;;;;;13.10;94.00;;;;;;5096755;28;19959;-68
2023/03/13 06:43:12;;;;;;;;;;;13.10;94.00;;;;;;5101432;27;19951;-67
2023/03/13 06:45:38;;;;;;;;;;;13.10;94.00;;;;;;5107579;27;19914;-68
2023/03/13 06:48:03;;;;;;;;;;;13.10;93.90;;;;;;5111649;27;20231;-68
2023/03/13 06:50:29;;;;;;;;;;;13.10;93.80;;;;;;5115582;27;19908;-68
2023/03/13 06:52:56;;;;;;;;;;;13.20;93.80;;;;;;5109309;28;20697;-68
2023/03/13 06:55:22;;;;;;;;;;;13.20;93.80;;;;;;5114286;27;19914;-68
2023/03/13 06:57:51;;;;;;;;;;;13.20;93.70;;;;;;5121261;27;19911;-68
2023/03/13 07:00:17;;;;;;;;;;;13.20;93.90;;;;;;5100087;28;20006;-68
2023/03/13 07:02:42;;;;;;;;;;;13.30;93.50;;;;;;5118113;28;20016;-68
2023/03/13 07:05:08;;;;;;;;;;;13.30;93.40;;;;;;5108218;28;20373;-68
2023/03/13 07:07:34;;;;;;;;;;;13.30;93.30;;;;;;5122937;27;19908;-68
2023/03/13 07:09:59;;;;;;;;;;;13.30;93.20;;;;;;5113287;27;19994;-68
2023/03/13 07:12:25;;;;;;;;;;;13.40;93.20;;;;;;5106137;28;19922;-68
2023/03/13 07:14:50;;;;;;;;;;;13.40;93.10;;;;;;5101168;28;19964;-67
2023/03/13 07:17:16;;;;;;;;;;;13.40;93.00;;;;;;5103159;28;19988;-67
2023/03/13 07:19:41;;;;;;;;;;;13.40;92.90;;;;;;5102073;28;19926;-68
2023/03/13 07:22:07;;;;;;;;;;;13.40;92.80;;;;;;5102285;28;19951;-68
2023/03/13 07:24:32;;;;;;;;;;;13.50;92.70;;;;;;5103985;28;19919;-67
2023/03/13 07:26:57;;;;;;;;;;;13.50;92.70;;;;;;5104672;27;20417;-68
2023/03/13 07:29:23;;;;;;;;;;;13.50;92.60;;;;;;5113988;27;20541;-68
2023/03/13 07:31:49;;;;;;;;;;;13.50;92.60;;;;;;5104870;27;19924;-68
2023/03/13 07:34:15;;;;;;;;;;;13.50;92.50;;;;;;5108332;27;19988;-67
2023/03/13 07:36:40;;;;;;;;;;;13.60;92.50;;;;;;5105914;27;19994;-68
2023/03/13 07:39:06;;;;;;;;;;;13.60;92.40;;;;;;5109777;27;19963;-68
2023/03/13 07:41:32;;;;;;;;;;;13.60;92.30;;;;;;5112957;27;19915;-68
2023/03/13 07:43:57;;;;;;;;;;;13.60;92.30;;;;;;5115819;27;20508;-68
2023/03/13 07:46:23;;;;;;;;;;;13.70;92.30;;;;;;5111855;27;20009;-67
2023/03/13 07:48:49;;;;;;;;;;;13.70;92.20;;;;;;5122174;27;19911;-67
2023/03/13 07:51:16;;;;;;;;;;;13.70;92.10;;;;;;5101085;27;20037;-67
2023/03/13 07:53:42;;;;;;;;;;;13.70;92.00;;;;;;5109767;27;19907;-66
2023/03/13 07:56:12;;;;;;;;;;;13.80;92.00;;;;;;5103506;27;19908;-67
2023/03/13 07:58:38;;;;;;;;;;;13.80;91.90;;;;;;5111492;27;19926;-67
2023/03/13 08:01:07;;;;;;;;;;;13.80;91.90;;;;;;5115286;27;20378;-67
2023/03/13 08:03:33;;;;;;;;;;;13.80;91.90;;;;;;5103373;27;19951;-67
2023/03/13 08:06:06;;;;;;;;;;;13.70;91.80;;;;;;5104227;27;20509;-67
2023/03/13 08:08:32;;;;;;;;;;;13.70;91.90;;;;;;5102734;28;20352;-68
2023/03/13 08:11:00;;;;;;;;;;;13.80;91.90;;;;;;5103187;27;19938;-67
2023/03/13 08:13:25;;;;;;;;;;;13.70;91.90;;;;;;5102511;27;19915;-67
2023/03/13 08:15:51;;;;;;;;;;;13.70;92.00;;;;;;5112157;27;19908;-67
2023/03/13 08:18:16;;;;;;;;;;;13.70;92.00;;;;;;5112860;27;20513;-66
2023/03/13 08:20:42;;;;;;;;;;;13.70;92.00;;;;;;5100872;27;19919;-67
2023/03/13 08:23:07;;;;;;;;;;;13.60;92.10;;;;;;5104415;28;19908;-66
2023/03/13 08:25:33;;;;;;;;;;;13.60;92.10;;;;;;5103034;27;19907;-68
2023/03/13 08:27:58;;;;;;;;;;;13.70;92.20;;;;;;5102454;27;19912;-67
2023/03/13 08:30:24;;;;;;;;;;;13.70;92.20;;;;;;5106363;27;20313;-67
2023/03/13 08:32:49;;;;;;;;;;;13.70;92.20;;;;;;5099999;28;19916;-67
2023/03/13 08:35:15;;;;;;;;;;;13.80;92.10;;;;;;5103987;27;19960;-67
2023/03/13 08:37:40;;;;;;;;;;;13.90;92.10;;;;;;5100449;28;19916;-67
2023/03/13 08:40:10;;;;;;;;;;;13.90;92.00;;;;;;5106596;27;20477;-67
2023/03/13 08:42:36;;;;;;;;;;;13.90;92.00;;;;;;5102921;27;19950;-66
2023/03/13 08:45:08;;;;;;;;;;;13.90;91.90;;;;;;5102872;28;19916;-67
2023/03/13 08:47:34;;;;;;;;;;;14.00;91.90;;;;;;5103573;27;19907;-66
2023/03/13 08:49:59;;;;;;;;;;;14.00;91.90;;;;;;5101900;28;19999;-66
2023/03/13 08:52:25;;;;;;;;;;;13.90;91.90;;;;;;5102916;27;19979;-67
2023/03/13 08:54:50;;;;;;;;;;;13.90;91.90;;;;;;5102115;27;19919;-68
2023/03/13 08:57:16;;;;;;;;;;;13.90;91.90;;;;;;5104062;27;20281;-66
2023/03/13 08:59:42;;;;;;;;;;;13.90;91.90;;;;;;5100508;27;19921;-66
2023/03/13 09:02:08;;;;;;;;;;;13.90;92.00;;;;;;5105471;27;19931;-66
2023/03/13 09:04:33;;;;;;;;;;;14.00;92.00;;;;;;5103055;27;20016;-66
2023/03/13 09:06:59;;;;;;;;;;;14.00;92.00;;;;;;5104409;27;20381;-66
2023/03/13 09:09:24;;;;;;;;;;;14.10;92.00;;;;;;5108328;27;19907;-66
2023/03/13 09:11:49;;;;;;;;;;;14.20;91.80;;;;;;5110634;28;19907;-66
2023/03/13 09:14:15;;;;;;;;;;;14.30;91.70;;;;;;5108545;27;20306;-66
2023/03/13 09:16:40;;;;;;;;;;;14.40;91.50;;;;;;5103343;27;19962;-66
2023/03/13 09:19:06;;;;;;;;;;;14.50;91.20;;;;;;5104154;27;19920;-66
2023/03/13 09:21:33;;;;;;;;;;;14.60;91.00;;;;;;5100926;27;19911;-66
2023/03/13 09:23:58;;;;;;;;;;;14.60;90.80;;;;;;5105953;27;19908;-66
2023/03/13 09:26:24;;;;;;;;;;;14.60;90.40;;;;;;5097433;27;19930;-66
2023/03/13 09:28:50;;;;;;;;;;;14.60;90.30;;;;;;5107193;27;20042;-66
2023/03/13 09:31:17;;;;;;;;;;;14.60;90.20;;;;;;5104285;27;19994;-66
2023/03/13 09:33:43;;;;;;;;;;;14.60;90.10;;;;;;5102357;28;19908;-66
2023/03/13 09:36:09;;;;;;;;;;;14.70;90.00;;;;;;5101870;27;19912;-66
2023/03/13 09:38:35;;;;;;;;;;;14.70;89.40;;;;;;5111629;27;19908;-66
2023/03/13 09:41:16;;;;;;;;;;;14.70;89.30;;;;;;5098046;27;19960;-66
2023/03/13 09:44:00;;;;;;;;;;;14.80;88.90;;;;;;5101275;27;19911;-66
2023/03/13 09:46:44;;;;;;;;;;;14.90;89.10;;;;;;5104137;27;19907;-66
2023/03/13 09:49:30;;;;;;;;;;;14.90;88.60;;;;;;5109651;27;20014;-66
2023/03/13 09:52:01;;;;;;;;;;;14.90;88.20;;;;;;5095187;28;19912;-66
2023/03/13 09:54:32;;;;;;;;;;;15.00;88.10;;;;;;5104725;28;19989;-66
2023/03/13 09:57:14;;;;;;;;;;;15.00;87.80;;;;;;5093548;28;19916;-66
2023/03/13 09:59:42;;;;;;;;;;;15.10;87.60;;;;;;5098847;28;20384;-66
2023/03/13 10:02:18;;;;;;;;;;;15.10;87.80;;;;;;5100944;28;19908;-67
2023/03/13 10:04:46;;;;;;;;;;;15.10;87.70;;;;;;5095096;28;20312;-66
2023/03/13 10:07:12;;;;;;;;;;;15.10;87.50;;;;;;5102584;27;20034;-66
2023/03/13 10:09:39;;;;;;;;;;;15.10;87.30;;;;;;5107342;27;20081;-66
2023/03/13 10:12:15;;;;;;;;;;;15.10;87.30;;;;;;5105174;27;20274;-66
2023/03/13 10:14:46;;;;;;;;;;;15.20;87.10;;;;;;5094660;28;19915;-66
2023/03/13 10:17:27;;;;;;;;;;;15.20;87.00;;;;;;5111283;27;20314;-66
2023/03/13 10:19:59;;;;;;;;;;;15.30;86.90;;;;;;5112789;27;19912;-66
2023/03/13 10:22:25;;;;;;;;;;;15.30;86.90;;;;;;5100911;27;19907;-66
2023/03/13 10:24:59;;;;;;;;;;;15.30;86.50;;;;;;5101519;27;19969;-66
2023/03/13 10:27:24;;;;;;;;;;;15.30;85.50;;;;;;5112266;27;19953;-66
2023/03/13 10:29:49;;;;;;;;;;;15.30;85.40;;;;;;5101901;27;19908;-66
2023/03/13 10:32:16;;;;;;;;;;;15.40;85.40;;;;;;5104283;27;19917;-66
2023/03/13 10:34:59;;;;;;;;;;;15.50;85.10;;;;;;5103562;27;19977;-66
2023/03/13 10:37:27;;;;;;;;;;;15.50;85.50;;;;;;5095459;28;20002;-66
2023/03/13 10:39:53;;;;;;;;;;;15.50;84.60;;;;;;5100250;28;19919;-66
2023/03/13 10:42:30;;;;;;;;;;;15.60;83.70;;;;;;5094374;28;19908;-66
2023/03/13 10:44:57;;;;;;;;;;;15.60;83.30;;;;;;5101033;28;19908;-66
2023/03/13 10:47:23;;;;;;;;;;;15.70;83.60;;;;;;5097745;28;20437;-66
2023/03/13 10:49:49;;;;;;;;;;;15.80;83.10;;;;;;5104438;28;20002;-66
2023/03/13 10:52:28;;;;;;;;;;;15.90;83.20;;;;;;5103470;28;19908;-66
2023/03/13 10:54:58;;;;;;;;;;;15.90;82.70;;;;;;5100122;27;19916;-66
2023/03/13 10:57:23;;;;;;;;;;;16.00;82.00;;;;;;5101180;28;19961;-66
2023/03/13 10:59:49;;;;;;;;;;;15.90;81.80;;;;;;5106749;27;19915;-66
2023/03/13 11:02:35;;;;;;;;;;;16.00;81.80;;;;;;5085671;22;20039;-81
2023/03/13 11:05:02;;;;;;;;;;;16.10;81.30;;;;;;5039299;28;20386;-81
2023/03/13 11:07:31;;;;;;;;;;;16.10;81.20;;;;;;5050290;28;19952;-81
2023/03/13 11:10:00;;;;;;;;;;;16.20;81.00;;;;;;5060489;28;19908;-82
2023/03/13 11:12:26;;;;;;;;;;;16.20;80.60;;;;;;5047795;28;19955;-82
2023/03/13 11:14:58;;;;;;;;;;;16.30;80.30;;;;;;5052557;28;19951;-82
2023/03/13 11:17:27;;;;;;;;;;;16.40;79.80;;;;;;5063450;28;19915;-82
2023/03/13 11:20:17;;;;;;;;;;;16.40;79.60;;;;;;5050439;28;19923;-82
2023/03/13 11:22:47;;;;;;;;;;;16.40;79.50;;;;;;5048064;28;19967;-81
2023/03/13 11:25:17;;;;;;;;;;;16.50;79.10;;;;;;5053538;28;19919;-81
2023/03/13 11:28:01;;;;;;;;;;;16.70;79.00;;;;;;5052364;28;19927;-82
2023/03/13 11:30:45;;;;;;;;;;;16.70;79.10;;;;;;5051196;28;20303;-82
2023/03/13 11:33:19;;;;;;;;;;;16.80;78.50;;;;;;5056344;28;19913;-82
2023/03/13 11:35:45;;;;;;;;;;;16.90;78.20;;;;;;5047316;28;19917;-81
2023/03/13 11:38:17;;;;;;;;;;;16.90;78.20;;;;;;5048846;28;19927;-82
2023/03/13 11:41:03;;;;;;;;;;;17.00;77.90;;;;;;5056975;28;19912;-81
2023/03/13 11:43:38;;;;;;;;;;;17.00;77.80;;;;;;5036918;28;19968;-82
2023/03/13 11:46:22;;;;;;;;;;;17.20;76.90;;;;;;5056512;28;19909;-83
2023/03/13 11:49:06;;;;;;;;;;;17.20;76.70;;;;;;5055555;28;19967;-82
2023/03/13 11:51:37;;;;;;;;;;;17.20;76.30;;;;;;5050323;28;19915;-81
2023/03/13 11:54:10;;;;;;;;;;;17.20;75.80;;;;;;5054536;28;19908;-82
2023/03/13 11:56:42;;;;;;;;;;;17.30;75.80;;;;;;5058830;28;20001;-82
2023/03/13 11:59:20;;;;;;;;;;;17.30;75.50;;;;;;5052159;28;19917;-82
2023/03/13 12:01:50;;;;;;;;;;;17.30;75.30;;;;;;5050454;28;19932;-83
2023/03/13 12:04:19;;;;;;;;;;;17.30;74.30;;;;;;5060923;28;19913;-82
2023/03/13 12:06:57;;;;;;;;;;;17.30;74.40;;;;;;5064837;28;19951;-82
2023/03/13 12:09:29;;;;;;;;;;;17.40;74.80;;;;;;5063804;28;19935;-82
2023/03/13 12:12:02;;;;;;;;;;;17.50;74.90;;;;;;5049364;28;19915;-82
2023/03/13 12:15:00;;;;;;;;;;;17.40;74.20;;;;;;5058870;28;19912;-82
2023/03/13 12:17:32;;;;;;;;;;;17.50;74.60;;;;;;4998847;28;21089;-81
2023/03/13 12:20:00;;;;;;;;;;;17.50;74.90;;;;;;5050238;28;20010;-81
2023/03/13 12:22:44;;;;;;;;;;;17.50;74.60;;;;;;5050325;28;19909;-82
2023/03/13 12:25:22;;;;;;;;;;;17.60;75.00;;;;;;5058483;28;19913;-82
2023/03/13 12:27:55;;;;;;;;;;;17.60;74.20;;;;;;5056141;28;20268;-82
2023/03/13 12:30:20;;;;;;;;;;;17.70;74.30;;;;;;5059672;28;20294;-82
2023/03/13 12:32:48;;;;;;;;;;;17.70;74.50;;;;;;5060042;28;19912;-83
2023/03/13 12:35:19;;;;;;;;;;;17.80;73.40;;;;;;5061979;28;19908;-83
2023/03/13 12:37:53;;;;;;;;;;;17.70;73.00;;;;;;5047838;28;19909;-81
2023/03/13 12:40:24;;;;;;;;;;;17.60;72.70;;;;;;5057433;28;19909;-83
2023/03/13 12:42:54;;;;;;;;;;;17.60;72.40;;;;;;5055378;28;19955;-83
2023/03/13 12:45:22;;;;;;;;;;;17.60;72.20;;;;;;5049441;28;20345;-83
2023/03/13 12:47:57;;;;;;;;;;;17.50;72.80;;;;;;5052787;28;19915;-83
2023/03/13 12:50:28;;;;;;;;;;;17.50;72.10;;;;;;5059385;28;19908;-84
2023/03/13 12:53:15;;;;;;;;;;;17.40;72.20;;;;;;5059426;28;20101;-86
2023/03/13 12:55:40;;;;;;;;;;;17.50;72.50;;;;;;5057746;28;19908;-86
2023/03/13 12:58:09;;;;;;;;;;;17.50;72.10;;;;;;5058623;28;19932;-87
2023/03/13 13:00:36;;;;;;;;;;;17.70;72.00;;;;;;5055465;28;20022;-88
2023/03/13 13:03:02;;;;;;;;;;;17.80;71.70;;;;;;5047421;28;19966;-82
2023/03/13 13:05:27;;;;;;;;;;;17.90;70.80;;;;;;5043608;28;19924;-81
2023/03/13 13:07:54;;;;;;;;;;;18.00;71.10;;;;;;5048673;28;19917;-81
2023/03/13 13:10:21;;;;;;;;;;;18.20;71.00;;;;;;5052228;28;19908;-82
2023/03/13 13:13:06;;;;;;;;;;;18.30;70.20;;;;;;5051768;28;20406;-83
2023/03/13 13:15:32;;;;;;;;;;;18.50;69.60;;;;;;5040730;28;19909;-83
2023/03/13 13:18:00;;;;;;;;;;;18.50;69.50;;;;;;5045509;28;19916;-84
2023/03/13 13:20:25;;;;;;;;;;;18.50;68.50;;;;;;5048217;28;20019;-83
2023/03/13 13:22:52;;;;;;;;;;;18.50;68.80;;;;;;5045259;28;19917;-83
2023/03/13 13:25:29;;;;;;;;;;;18.60;69.00;;;;;;5047605;28;19920;-83
2023/03/13 13:27:54;;;;;;;;;;;18.60;69.20;;;;;;5050214;28;19916;-82
2023/03/13 13:30:20;;;;;;;;;;;18.70;67.90;;;;;;5053839;28;19916;-83
2023/03/13 13:32:50;;;;;;;;;;;18.70;68.10;;;;;;5055157;28;20371;-83
2023/03/13 13:35:22;;;;;;;;;;;18.70;66.90;;;;;;5047869;28;19915;-84
2023/03/13 13:37:47;;;;;;;;;;;18.70;66.20;;;;;;5043862;28;20383;-82
2023/03/13 13:40:27;;;;;;;;;;;18.60;65.50;;;;;;5053747;28;19966;-83
2023/03/13 13:42:57;;;;;;;;;;;18.50;66.30;;;;;;5047065;28;20561;-82
2023/03/13 13:45:30;;;;;;;;;;;18.50;66.20;;;;;;5054287;28;20359;-84
2023/03/13 13:48:14;;;;;;;;;;;18.60;65.50;;;;;;5050152;28;20284;-84
2023/03/13 13:50:59;;;;;;;;;;;18.60;64.60;;;;;;5049458;28;19960;-83
2023/03/13 13:53:28;;;;;;;;;;;18.60;63.00;;;;;;5055004;28;20007;-81
2023/03/13 13:55:56;;;;;;;;;;;18.60;63.30;;;;;;5047883;28;19912;-83
2023/03/13 13:58:29;;;;;;;;;;;18.70;63.70;;;;;;5048848;28;20001;-83
2023/03/13 14:01:10;;;;;;;;;;;18.80;64.30;;;;;;5050444;28;20003;-83
2023/03/13 14:03:41;;;;;;;;;;;19.00;63.40;;;;;;5046894;28;19959;-83
2023/03/13 14:06:18;;;;;;;;;;;19.00;62.40;;;;;;5057274;28;20279;-82
2023/03/13 14:08:44;;;;;;;;;;;19.10;62.10;;;;;;5056368;28;20382;-83
2023/03/13 14:11:13;;;;;;;;;;;19.10;62.20;;;;;;5047359;28;19912;-83
2023/03/13 14:13:38;;;;;;;;;;;19.10;61.80;;;;;;5046556;28;20831;-84
2023/03/13 14:16:19;;;;;;;;;;;19.10;61.50;;;;;;5052013;28;19915;-84
2023/03/13 14:18:45;;;;;;;;;;;19.00;61.80;;;;;;5047070;28;19971;-82
2023/03/13 14:21:13;;;;;;;;;;;19.10;62.50;;;;;;5046722;28;19913;-81